Terminal Aerodrome Forecast
Issued by NWS Sterling, VA

Current Version | Previous Version | Text Only | Print | Product List | Glossary Off
Versions: 1 2 3 4 5 6 7 8 9 10 11 12 13 14 15

000
FTUS41 KLWX 222331
TAFMRB
TAF
KMRB 222331Z 2300/2324 33008KT P6SM SKC
     FM230400 VRB04KT P6SM FEW200
     FM231900 15005KT P6SM SCT200=

USA.gov is the U.S. government's official web portal to all federal, state and local government web resources and services.